Time;durP1;ratioP1;P1;durP2;ratioP2;P2;SDS_P1;SDS_P2;PMS_P1;PMS_P2;Temp;Humidity;BMP_temperature;BMP_pressure;BME280_temperature;BME280_humidity;BME280_pressure;Samples;Min_cycle;Max_cycle;Signal;HPM_P1;HPM_P2
2022/04/17 00:00:37;;;;;;;;;;;;;;;10.63;39.11;100797.41;4387823;32;35335;-79
2022/04/17 00:03:06;;;;;;;;;;;;;;;10.60;38.32;100795.00;4395873;32;34056;-79
2022/04/17 00:05:35;;;;;;;;;;;;;;;10.59;39.02;100791.47;4410138;32;33017;-79
2022/04/17 00:08:03;;;;;;;;;;;;;;;10.66;39.35;100795.34;4400201;32;34189;-79
2022/04/17 00:10:31;;;;;;;;;;;;;;;10.06;37.45;100792.13;4406890;32;35159;-79
2022/04/17 00:12:59;;;;;;;;;;;;;;;10.09;38.03;100794.56;4400271;32;34595;-78
2022/04/17 00:15:27;;;;;;;;;;;;;;;10.08;37.56;100784.03;4397156;32;34675;-79
2022/04/17 00:17:55;;;;;;;;;;;;;;;10.14;37.03;100791.53;4394804;32;32415;-79
2022/04/17 00:20:23;;;;;;;;;;;;;;;10.64;35.71;100781.34;4397654;32;36231;-78
2022/04/17 00:22:51;;;;;;;;;;;;;;;10.40;37.96;100779.75;4395266;32;33943;-79
2022/04/17 00:25:19;;;;;;;;;;;;;;;10.32;38.63;100779.50;4397806;32;34077;-79
2022/04/17 00:27:47;;;;;;;;;;;;;;;10.35;37.07;100782.75;4397597;32;33964;-79
2022/04/17 00:30:15;;;;;;;;;;;;;;;9.73;32.57;100775.22;4396968;32;35225;-78
2022/04/17 00:32:43;;;;;;;;;;;;;;;9.04;33.94;100783.03;4395656;32;34493;-78
2022/04/17 00:35:10;;;;;;;;;;;;;;;8.95;33.56;100784.56;4403653;32;33533;-78
2022/04/17 00:37:38;;;;;;;;;;;;;;;8.90;33.85;100786.69;4393876;32;35490;-79
2022/04/17 00:40:07;;;;;;;;;;;;;;;8.94;33.91;100777.56;4396829;32;33861;-79
2022/04/17 00:42:35;;;;;;;;;;;;;;;9.00;36.63;100793.03;4396346;32;34067;-78
2022/04/17 00:45:03;;;;;;;;;;;;;;;8.90;35.57;100789.34;4399005;32;34065;-78
2022/04/17 00:47:31;;;;;;;;;;;;;;;9.07;33.95;100786.34;4398577;32;33945;-78
2022/04/17 00:49:58;;;;;;;;;;;;;;;9.06;33.86;100774.03;4394474;32;35307;-78
2022/04/17 00:52:26;;;;;;;;;;;;;;;8.61;33.73;100777.31;4382371;32;34967;-79
2022/04/17 00:54:54;;;;;;;;;;;;;;;8.93;34.00;100775.87;4394641;32;34148;-79
2022/04/17 00:57:22;;;;;;;;;;;;;;;8.65;34.98;100772.63;4395892;32;34886;-78
2022/04/17 00:59:50;;;;;;;;;;;;;;;8.93;35.18;100775.00;4409562;32;35377;-79
2022/04/17 01:02:18;;;;;;;;;;;;;;;8.66;33.75;100769.03;4396670;32;34223;-78
2022/04/17 01:04:46;;;;;;;;;;;;;;;8.90;34.44;100773.41;4396835;32;34520;-78
2022/04/17 01:07:15;;;;;;;;;;;;;;;9.16;33.49;100759.13;4399464;32;33508;-79
2022/04/17 01:09:45;;;;;;;;;;;;;;;9.01;34.76;100772.66;4409329;32;35370;-79
2022/04/17 01:12:13;;;;;;;;;;;;;;;8.85;34.87;100772.91;4409869;32;35439;-78
2022/04/17 01:14:41;;;;;;;;;;;;;;;9.37;32.92;100756.69;4395583;32;32739;-78
2022/04/17 01:17:10;;;;;;;;;;;;;;;9.24;32.96;100758.53;4406338;32;33157;-79
2022/04/17 01:19:39;;;;;;;;;;;;;;;8.98;33.42;100759.63;4411887;32;33970;-79
2022/04/17 01:22:11;;;;;;;;;;;;;;;9.09;32.95;100759.69;4411149;32;34021;-79
2022/04/17 01:27:26;;;;;;;;;;;;;;;9.19;33.08;100761.53;4399539;32;34406;-79
2022/04/17 01:29:53;;;;;;;;;;;;;;;9.44;33.73;100766.75;4411744;32;34530;-78
2022/04/17 01:32:21;;;;;;;;;;;;;;;9.34;36.09;100755.09;4400553;32;35511;-78
2022/04/17 01:34:49;;;;;;;;;;;;;;;9.33;32.30;100757.88;4399927;32;33424;-79
2022/04/17 01:37:20;;;;;;;;;;;;;;;9.61;33.55;100755.72;4411026;32;32406;-78
2022/04/17 01:39:48;;;;;;;;;;;;;;;9.37;32.28;100754.88;4400136;32;35013;-78
2022/04/17 01:42:16;;;;;;;;;;;;;;;9.07;33.20;100756.31;4399343;32;34406;-78
2022/04/17 01:44:44;;;;;;;;;;;;;;;9.22;31.52;100747.19;4400667;32;33595;-78
2022/04/17 01:47:12;;;;;;;;;;;;;;;9.54;31.32;100751.00;4410435;32;32091;-79
2022/04/17 01:49:40;;;;;;;;;;;;;;;9.38;33.15;100747.78;4396386;32;35471;-79
2022/04/17 01:52:08;;;;;;;;;;;;;;;9.26;32.59;100746.03;4399189;32;35546;-79
2022/04/17 01:54:37;;;;;;;;;;;;;;;9.48;32.90;100743.47;4395447;32;31982;-78
2022/04/17 01:57:05;;;;;;;;;;;;;;;9.50;33.49;100752.16;4398756;32;34350;-79
2022/04/17 01:59:33;;;;;;;;;;;;;;;9.29;33.19;100745.78;4404357;32;35167;-79
2022/04/17 02:02:01;;;;;;;;;;;;;;;9.09;32.93;100749.06;4396475;32;35691;-79
2022/04/17 02:04:35;;;;;;;;;;;;;;;9.42;33.99;100742.13;4400227;32;33599;-79
2022/04/17 02:07:03;;;;;;;;;;;;;;;9.50;33.53;100742.41;4401003;32;33895;-79
2022/04/17 02:09:31;;;;;;;;;;;;;;;9.77;33.34;100742.13;4411664;32;35831;-79
2022/04/17 02:11:59;;;;;;;;;;;;;;;9.92;32.60;100741.78;4404361;32;36021;-78
2022/04/17 02:14:27;;;;;;;;;;;;;;;9.71;32.27;100731.94;4399585;32;33317;-79
2022/04/17 02:16:55;;;;;;;;;;;;;;;9.23;32.26;100730.31;4402771;32;33780;-79
2022/04/17 02:19:23;;;;;;;;;;;;;;;9.44;33.89;100734.03;4404305;32;34936;-79
2022/04/17 02:21:50;;;;;;;;;;;;;;;9.76;34.90;100728.00;4401634;32;34161;-79
2022/04/17 02:24:18;;;;;;;;;;;;;;;9.76;34.74;100738.63;4398959;32;33536;-79
2022/04/17 02:26:46;;;;;;;;;;;;;;;9.64;32.90;100731.56;4402779;32;34182;-79
2022/04/17 02:29:14;;;;;;;;;;;;;;;9.74;33.96;100724.59;4400971;32;36070;-78
2022/04/17 02:31:42;;;;;;;;;;;;;;;9.52;34.51;100721.87;4401105;32;34585;-78
2022/04/17 02:34:10;;;;;;;;;;;;;;;9.66;34.93;100724.31;4400109;32;33528;-79
2022/04/17 02:36:38;;;;;;;;;;;;;;;10.09;30.98;100713.97;4406123;32;33906;-79
2022/04/17 02:39:06;;;;;;;;;;;;;;;9.66;33.19;100723.50;4401647;32;35760;-79
2022/04/17 02:41:34;;;;;;;;;;;;;;;9.30;33.41;100716.47;4397464;32;34840;-79
2022/04/17 02:44:02;;;;;;;;;;;;;;;9.52;31.91;100705.94;4400987;32;34882;-78
2022/04/17 02:49:17;;;;;;;;;;;;;;;9.14;32.77;100701.78;4406713;32;35025;-79
2022/04/17 02:51:45;;;;;;;;;;;;;;;9.10;32.72;100701.16;4397734;32;34166;-79
2022/04/17 02:54:13;;;;;;;;;;;;;;;9.13;33.93;100695.63;4399984;32;34230;-79
2022/04/17 02:56:40;;;;;;;;;;;;;;;8.53;32.49;100702.72;4410274;32;34622;-78
2022/04/17 02:59:08;;;;;;;;;;;;;;;8.55;33.45;100710.59;4400322;32;35198;-78
2022/04/17 03:07:10;;;;;;;;;;;;;;;8.52;33.74;100718.78;4394242;32;33693;-78
2022/04/17 03:09:39;;;;;;;;;;;;;;;8.63;33.72;100711.72;4397861;32;34941;-78
2022/04/17 03:12:06;;;;;;;;;;;;;;;8.39;34.26;100709.97;4395264;32;34679;-78
2022/04/17 03:14:34;;;;;;;;;;;;;;;8.32;32.83;100719.34;4407008;32;34038;-79
2022/04/17 03:17:04;;;;;;;;;;;;;;;8.16;34.11;100723.12;4399562;32;34178;-78
2022/04/17 03:19:32;;;;;;;;;;;;;;;8.43;35.46;100719.44;4397932;32;35125;-78
2022/04/17 03:22:00;;;;;;;;;;;;;;;7.96;32.96;100721.87;4398002;32;34814;-78
2022/04/17 03:24:27;;;;;;;;;;;;;;;8.20;35.66;100722.84;4395677;32;33625;-78
2022/04/17 03:26:55;;;;;;;;;;;;;;;8.06;34.73;100722.06;4399172;32;34144;-78
2022/04/17 03:29:23;;;;;;;;;;;;;;;7.89;35.70;100733.81;4411220;32;35729;-78
2022/04/17 03:31:51;;;;;;;;;;;;;;;8.22;34.10;100731.50;4399853;32;34804;-78
2022/04/17 03:34:19;;;;;;;;;;;;;;;8.09;33.69;100733.31;4397905;32;32789;-78
2022/04/17 03:36:48;;;;;;;;;;;;;;;7.80;34.01;100734.44;4394820;32;35453;-78
2022/04/17 03:39:16;;;;;;;;;;;;;;;8.10;34.39;100739.47;4397099;32;35427;-78
2022/04/17 03:41:43;;;;;;;;;;;;;;;8.07;33.76;100735.22;4400994;32;33705;-78
2022/04/17 03:44:11;;;;;;;;;;;;;;;7.98;33.66;100738.50;4398181;32;35267;-78
2022/04/17 03:46:40;;;;;;;;;;;;;;;7.64;32.96;100735.59;4396494;32;34142;-78
2022/04/17 03:49:08;;;;;;;;;;;;;;;7.77;33.65;100747.06;4398730;32;35481;-78
2022/04/17 03:51:36;;;;;;;;;;;;;;;7.68;34.67;100747.66;4398411;32;35256;-78
2022/04/17 03:54:05;;;;;;;;;;;;;;;7.67;33.26;100746.84;4401052;32;34117;-78
2022/04/17 03:56:33;;;;;;;;;;;;;;;7.74;33.11;100745.44;4397795;32;35059;-78
2022/04/17 03:59:04;;;;;;;;;;;;;;;7.31;34.45;100744.00;4410597;32;35373;-78
2022/04/17 04:01:32;;;;;;;;;;;;;;;7.07;35.08;100750.88;4402665;32;35561;-79
2022/04/17 04:04:00;;;;;;;;;;;;;;;7.04;34.95;100761.66;4401479;32;34465;-78
2022/04/17 04:06:27;;;;;;;;;;;;;;;7.42;34.51;100754.72;4394203;32;34005;-78
2022/04/17 04:08:55;;;;;;;;;;;;;;;7.23;35.34;100762.16;4399532;32;34673;-78
2022/04/17 04:11:23;;;;;;;;;;;;;;;7.39;34.06;100764.66;4399637;32;34674;-78
2022/04/17 04:13:51;;;;;;;;;;;;;;;7.33;34.70;100759.75;4401022;32;34088;-78
2022/04/17 04:16:18;;;;;;;;;;;;;;;7.46;35.34;100755.34;4400175;32;34730;-79
2022/04/17 04:18:46;;;;;;;;;;;;;;;7.21;36.94;100764.06;4400294;32;35312;-78
2022/04/17 04:21:14;;;;;;;;;;;;;;;7.08;36.51;100762.31;4397359;32;34453;-78
2022/04/17 04:23:41;;;;;;;;;;;;;;;7.08;36.02;100763.16;4400584;32;33918;-78
2022/04/17 04:26:09;;;;;;;;;;;;;;;7.43;37.38;100763.47;4402449;32;34425;-78
2022/04/17 04:28:37;;;;;;;;;;;;;;;7.73;34.69;100759.66;4399865;32;36088;-78
2022/04/17 04:31:06;;;;;;;;;;;;;;;7.90;35.46;100767.31;4392556;32;34283;-78
2022/04/17 04:33:35;;;;;;;;;;;;;;;8.12;33.75;100767.53;4399628;32;33784;-78
2022/04/17 04:36:04;;;;;;;;;;;;;;;8.09;36.21;100765.09;4398208;32;33776;-78
2022/04/17 04:38:33;;;;;;;;;;;;;;;8.21;33.83;100774.88;4395048;32;34919;-78
2022/04/17 04:41:01;;;;;;;;;;;;;;;8.35;35.80;100769.50;4394871;32;34462;-78
2022/04/17 04:43:29;;;;;;;;;;;;;;;8.01;34.21;100775.38;4396778;32;32265;-78
2022/04/17 04:46:06;;;;;;;;;;;;;;;8.39;36.32;100765.66;4398604;32;34184;-78
2022/04/17 04:51:28;;;;;;;;;;;;;;;8.49;35.84;100772.00;4407133;32;33725;-78
2022/04/17 04:53:59;;;;;;;;;;;;;;;8.44;36.06;100769.69;4395819;32;33258;-78
2022/04/17 04:56:27;;;;;;;;;;;;;;;8.28;34.28;100772.69;4398997;32;32575;-78
2022/04/17 04:58:54;;;;;;;;;;;;;;;8.37;34.43;100772.87;4399807;32;34812;-78
2022/04/17 05:01:22;;;;;;;;;;;;;;;8.44;34.49;100771.50;4396417;32;34940;-78
2022/04/17 05:03:50;;;;;;;;;;;;;;;8.08;35.05;100766.06;4399777;32;34344;-78
2022/04/17 05:06:18;;;;;;;;;;;;;;;8.42;33.62;100768.13;4401972;32;33511;-78
2022/04/17 05:08:46;;;;;;;;;;;;;;;8.20;33.05;100767.88;4401545;32;34986;-78
2022/04/17 05:11:14;;;;;;;;;;;;;;;8.49;32.73;100769.34;4401518;32;34092;-78
2022/04/17 05:13:43;;;;;;;;;;;;;;;8.60;33.19;100766.81;4406436;32;34412;-79
2022/04/17 05:16:11;;;;;;;;;;;;;;;8.35;34.80;100764.19;4398362;32;34378;-79
2022/04/17 05:18:39;;;;;;;;;;;;;;;8.57;32.93;100770.53;4396208;32;37015;-79
2022/04/17 05:21:08;;;;;;;;;;;;;;;8.61;32.95;100764.03;4399728;32;34474;-79
2022/04/17 05:23:37;;;;;;;;;;;;;;;8.96;34.62;100773.00;4400439;32;33236;-79
2022/04/17 05:26:06;;;;;;;;;;;;;;;8.96;35.62;100770.34;4391692;32;33268;-80
2022/04/17 05:28:34;;;;;;;;;;;;;;;8.78;34.72;100765.50;4401258;32;36756;-80
2022/04/17 05:31:01;;;;;;;;;;;;;;;8.72;33.48;100766.78;4396456;32;33789;-79
2022/04/17 05:33:29;;;;;;;;;;;;;;;8.96;34.25;100773.00;4398023;32;33615;-79
2022/04/17 05:35:57;;;;;;;;;;;;;;;8.77;33.53;100769.97;4400932;32;34982;-79
2022/04/17 05:38:25;;;;;;;;;;;;;;;8.69;34.13;100761.69;4399777;32;36181;-80
2022/04/17 05:40:52;;;;;;;;;;;;;;;9.12;33.20;100764.75;4399622;32;34626;-79
2022/04/17 05:43:20;;;;;;;;;;;;;;;9.04;33.50;100773.28;4405849;32;34413;-79
2022/04/17 05:45:50;;;;;;;;;;;;;;;9.34;32.18;100768.38;4396362;32;34304;-79
2022/04/17 05:48:18;;;;;;;;;;;;;;;9.26;32.84;100761.97;4383565;32;34264;-79
2022/04/17 05:50:45;;;;;;;;;;;;;;;8.97;33.18;100768.53;4410593;32;34736;-80
2022/04/17 05:53:13;;;;;;;;;;;;;;;9.11;33.52;100761.28;4402285;32;33234;-80
2022/04/17 05:55:41;;;;;;;;;;;;;;;9.69;31.04;100766.63;4404596;32;35541;-80
2022/04/17 05:58:08;;;;;;;;;;;;;;;9.28;33.24;100760.88;4398566;32;34163;-79
2022/04/17 06:00:36;;;;;;;;;;;;;;;9.02;31.29;100756.63;4395711;32;34848;-79
2022/04/17 06:03:05;;;;;;;;;;;;;;;9.16;31.92;100760.94;4399209;32;33729;-79
2022/04/17 06:05:32;;;;;;;;;;;;;;;9.41;33.83;100750.19;4398311;32;33300;-80
2022/04/17 06:08:00;;;;;;;;;;;;;;;9.28;35.63;100754.72;4385253;32;33256;-80
2022/04/17 06:10:27;;;;;;;;;;;;;;;9.53;31.01;100765.22;4395863;32;34884;-80
2022/04/17 06:12:55;;;;;;;;;;;;;;;9.43;32.03;100761.53;4397222;32;33749;-79
2022/04/17 06:15:22;;;;;;;;;;;;;;;9.65;32.33;100767.78;4396377;32;34653;-80
2022/04/17 06:17:50;;;;;;;;;;;;;;;9.14;32.20;100763.69;4394178;32;36099;-79
2022/04/17 06:20:18;;;;;;;;;;;;;;;9.35;31.78;100767.44;4397727;32;34823;-80
2022/04/17 06:22:45;;;;;;;;;;;;;;;9.67;31.87;100762.37;4396376;32;32561;-79
2022/04/17 06:25:14;;;;;;;;;;;;;;;9.93;33.17;100758.59;4400191;32;33925;-79
2022/04/17 06:27:43;;;;;;;;;;;;;;;10.17;32.03;100764.72;4397295;32;36512;-79
2022/04/17 06:30:16;;;;;;;;;;;;;;;10.17;33.30;100764.72;4404548;32;34051;-79
2022/04/17 06:32:44;;;;;;;;;;;;;;;10.34;33.70;100764.25;4409381;32;33464;-80
2022/04/17 06:35:12;;;;;;;;;;;;;;;10.72;32.22;100759.44;4398289;32;33928;-81
2022/04/17 06:37:52;;;;;;;;;;;;;;;10.71;32.04;100763.91;4399781;32;36076;-79
2022/04/17 06:40:21;;;;;;;;;;;;;;;10.55;31.26;100765.22;4407120;32;34209;-79
2022/04/17 06:42:50;;;;;;;;;;;;;;;10.60;29.80;100763.06;4399286;32;33903;-80
2022/04/17 06:45:18;;;;;;;;;;;;;;;10.51;29.69;100748.69;4395619;32;33411;-79
2022/04/17 06:47:47;;;;;;;;;;;;;;;10.10;30.96;100759.03;4399560;32;35974;-79
2022/04/17 06:50:15;;;;;;;;;;;;;;;10.22;32.84;100766.09;4396256;32;35202;-80
2022/04/17 06:52:43;;;;;;;;;;;;;;;10.00;30.64;100770.47;4395879;32;33295;-79
2022/04/17 06:55:11;;;;;;;;;;;;;;;9.89;30.99;100773.94;4398427;32;34283;-80
2022/04/17 06:57:49;;;;;;;;;;;;;;;10.22;30.46;100771.41;4394319;32;34688;-79
2022/04/17 07:00:17;;;;;;;;;;;;;;;10.24;32.06;100766.81;4399296;32;34757;-80
2022/04/17 07:02:45;;;;;;;;;;;;;;;10.34;32.47;100773.09;4395069;32;34131;-79
2022/04/17 07:05:13;;;;;;;;;;;;;;;10.71;32.28;100779.03;4396035;32;33600;-80
2022/04/17 07:07:41;;;;;;;;;;;;;;;11.00;32.39;100780.22;4394168;32;34491;-80
2022/04/17 07:10:11;;;;;;;;;;;;;;;11.26;32.29;100768.31;4390061;32;33759;-80
2022/04/17 07:12:39;;;;;;;;;;;;;;;11.26;28.87;100753.19;4398024;32;32982;-81
2022/04/17 07:15:11;;;;;;;;;;;;;;;10.74;31.55;100757.50;4395632;32;33523;-78
2022/04/17 07:17:39;;;;;;;;;;;;;;;10.97;31.31;100759.16;4393357;32;35106;-79
2022/04/17 07:20:07;;;;;;;;;;;;;;;11.12;30.04;100764.09;4400176;32;35476;-79
2022/04/17 07:22:37;;;;;;;;;;;;;;;11.47;32.91;100762.91;4405117;32;33568;-78
2022/04/17 07:25:05;;;;;;;;;;;;;;;11.48;29.08;100766.41;4407444;32;33580;-77
2022/04/17 07:27:42;;;;;;;;;;;;;;;11.46;29.34;100763.88;4407061;32;36046;-77
2022/04/17 07:30:12;;;;;;;;;;;;;;;11.79;30.92;100768.25;4398427;32;36816;-79
2022/04/17 07:32:58;;;;;;;;;;;;;;;11.95;28.95;100768.66;4399591;32;32039;-78
2022/04/17 07:35:27;;;;;;;;;;;;;;;12.21;28.12;100764.62;4405127;32;33810;-79
2022/04/17 07:37:56;;;;;;;;;;;;;;;11.97;27.45;100766.72;4393978;32;35032;-79
2022/04/17 07:40:26;;;;;;;;;;;;;;;11.53;27.19;100764.22;4390995;32;34347;-79
2022/04/17 07:42:56;;;;;;;;;;;;;;;11.45;27.78;100762.19;4396070;32;33418;-80
2022/04/17 07:45:23;;;;;;;;;;;;;;;11.17;28.88;100763.72;4395608;32;35016;-79
2022/04/17 07:47:51;;;;;;;;;;;;;;;11.27;32.09;100761.03;4394098;32;34083;-79
2022/04/17 07:50:21;;;;;;;;;;;;;;;11.30;29.54;100765.25;4407666;32;35240;-80
2022/04/17 07:52:49;;;;;;;;;;;;;;;11.20;28.96;100759.00;4406047;32;34790;-79
2022/04/17 07:55:17;;;;;;;;;;;;;;;11.52;32.06;100754.53;4405383;32;34043;-81
2022/04/17 08:00:21;;;;;;;;;;;;;;;11.12;28.90;100750.78;4407443;32;34611;-80
2022/04/17 08:03:20;;;;;;;;;;;;;;;11.10;28.77;100749.19;4392377;32;32138;-79
2022/04/17 08:05:49;;;;;;;;;;;;;;;11.12;32.46;100750.78;4403480;32;34375;-80
2022/04/17 08:08:18;;;;;;;;;;;;;;;11.83;29.44;100745.72;4398281;32;35912;-80
2022/04/17 08:10:46;;;;;;;;;;;;;;;11.87;28.07;100745.31;4391880;32;34357;-81
2022/04/17 08:13:15;;;;;;;;;;;;;;;11.89;27.81;100745.16;4392426;32;34697;-80
2022/04/17 08:15:43;;;;;;;;;;;;;;;12.09;30.57;100745.19;4397004;32;33219;-81
2022/04/17 08:18:12;;;;;;;;;;;;;;;12.60;31.93;100737.16;4391135;32;35187;-81
2022/04/17 08:20:40;;;;;;;;;;;;;;;12.66;30.34;100739.31;4395402;32;34499;-81
2022/04/17 08:23:09;;;;;;;;;;;;;;;12.63;29.19;100739.56;4401663;32;33304;-80
2022/04/17 08:25:40;;;;;;;;;;;;;;;12.90;28.39;100731.78;4454899;27;33299;31
2022/04/17 08:28:29;;;;;;;;;;;;;;;13.06;30.69;100714.31;4318042;33;34174;-89
2022/04/17 08:30:58;;;;;;;;;;;;;;;13.18;29.14;100723.88;4323040;32;34548;-91
2022/04/17 08:33:54;;;;;;;;;;;;;;;13.42;30.33;100716.28;4327153;32;33838;-90
2022/04/17 08:36:41;;;;;;;;;;;;;;;13.08;27.95;100716.81;4335738;32;33790;-92
2022/04/17 08:39:09;;;;;;;;;;;;;;;12.91;29.26;100712.09;4332419;32;35248;-93
2022/04/17 08:41:56;;;;;;;;;;;;;;;13.34;27.23;100715.31;4342205;32;34340;-92
2022/04/17 08:44:29;;;;;;;;;;;;;;;12.99;26.22;100721.16;4334865;32;32660;-93
2022/04/17 08:47:01;;;;;;;;;;;;;;;12.37;28.83;100731.16;4344942;32;34967;-91
2022/04/17 08:49:48;;;;;;;;;;;;;;;12.70;29.88;100720.22;4336202;32;35853;-92
2022/04/17 08:52:37;;;;;;;;;;;;;;;13.07;29.85;100707.13;4330715;32;34181;-91
2022/04/17 08:55:07;;;;;;;;;;;;;;;13.29;25.84;100696.16;4343689;32;32463;-93
2022/04/17 08:58:02;;;;;;;;;;;;;;;12.88;26.90;100701.69;4330914;32;35102;-87
2022/04/17 09:00:34;;;;;;;;;;;;;;;12.96;28.89;100683.19;4344017;32;35482;-89
2022/04/17 09:03:02;;;;;;;;;;;;;;;13.05;31.64;100698.41;4336837;32;33066;-88
2022/04/17 09:05:47;;;;;;;;;;;;;;;13.21;31.00;100696.03;4335745;32;33650;-90
2022/04/17 09:08:19;;;;;;;;;;;;;;;13.44;27.70;100689.44;4313770;32;33828;-93
2022/04/17 09:11:31;;;;;;;;;;;;;;;13.54;26.26;100675.09;4339076;32;35278;-89
2022/04/17 09:14:04;;;;;;;;;;;;;;;13.70;30.67;100680.66;4319524;32;34114;-89
2022/04/17 09:16:52;;;;;;;;;;;;;;;13.98;28.05;100670.94;4329834;32;34193;-89
2022/04/17 09:19:28;;;;;;;;;;;;;;;13.92;26.73;100668.81;4340330;32;33600;-90
2022/04/17 09:21:56;;;;;;;;;;;;;;;14.10;26.09;100662.59;4335689;32;34627;-92
2022/04/17 09:24:26;;;;;;;;;;;;;;;13.86;26.81;100664.88;4332364;32;33362;-90
2022/04/17 09:26:54;;;;;;;;;;;;;;;13.94;29.89;100665.03;4347070;32;34042;-87
2022/04/17 09:29:27;;;;;;;;;;;;;;;14.30;28.07;100655.34;4346908;32;33017;-92
2022/04/17 09:31:56;;;;;;;;;;;;;;;14.07;28.43;100662.03;4335080;32;35451;-90
2022/04/17 09:34:29;;;;;;;;;;;;;;;14.87;25.54;100645.19;4342953;32;35127;-92
2022/04/17 09:36:58;;;;;;;;;;;;;;;14.57;25.40;100642.84;4344794;32;34584;-93
2022/04/17 09:39:46;;;;;;;;;;;;;;;14.46;26.74;100635.00;4337301;32;33915;-91
2022/04/17 09:42:33;;;;;;;;;;;;;;;14.38;30.57;100648.28;4337128;32;34600;-89
2022/04/17 09:45:19;;;;;;;;;;;;;;;14.77;28.84;100637.19;4332327;32;34480;-90
2022/04/17 09:48:01;;;;;;;;;;;;;;;14.70;29.71;100640.63;4339230;32;33776;-91
2022/04/17 09:50:32;;;;;;;;;;;;;;;14.70;27.47;100644.16;4342916;32;34829;-89
2022/04/17 09:53:49;;;;;;;;;;;;;;;14.39;26.95;100629.38;4352081;32;36762;-90
2022/04/17 09:56:22;;;;;;;;;;;;;;;14.93;28.75;100629.34;4344078;32;35182;-90
2022/04/17 09:59:17;;;;;;;;;;;;;;;15.14;25.97;100631.72;4330175;32;32306;-90
2022/04/17 10:01:55;;;;;;;;;;;;;;;15.65;26.46;100610.41;4358851;32;34915;-89
2022/04/17 10:04:40;;;;;;;;;;;;;;;15.22;25.39;100613.87;4352812;32;34095;-91
2022/04/17 10:07:14;;;;;;;;;;;;;;;15.04;25.17;100614.88;4332987;32;34484;-92
2022/04/17 10:10:11;;;;;;;;;;;;;;;15.22;25.45;100605.84;4345022;32;33574;-91
2022/04/17 10:12:46;;;;;;;;;;;;;;;14.76;25.71;100605.22;4352751;32;36198;-90
2022/04/17 10:15:33;;;;;;;;;;;;;;;15.14;27.17;100599.56;4350728;32;35415;-92
2022/04/17 10:18:05;;;;;;;;;;;;;;;14.87;26.01;100605.84;4347511;32;34255;-90
2022/04/17 10:20:34;;;;;;;;;;;;;;;15.00;24.48;100606.31;4347544;32;33546;-91
2022/04/17 10:23:21;;;;;;;;;;;;;;;15.35;24.15;100592.06;4352768;32;32231;-90
2022/04/17 10:26:12;;;;;;;;;;;;;;;14.94;26.67;100590.84;4338367;32;34732;-90
2022/04/17 10:28:49;;;;;;;;;;;;;;;15.09;23.15;100585.78;4344529;32;35286;-91
2022/04/17 10:31:25;;;;;;;;;;;;;;;15.06;25.20;100586.94;4344589;32;33842;-91
2022/04/17 10:34:15;;;;;;;;;;;;;;;14.72;25.05;100571.69;4347170;32;33829;-90
2022/04/17 10:37:17;;;;;;;;;;;;;;;14.79;25.62;100568.25;4349479;32;34175;-92
2022/04/17 10:43:42;;;;;;;;;;;;;;;15.03;26.43;100573.84;4374638;32;33789;-80
2022/04/17 10:46:14;;;;;;;;;;;;;;;14.76;23.00;100575.75;4378167;32;33732;-82
2022/04/17 10:48:44;;;;;;;;;;;;;;;15.05;27.44;100566.47;4352267;32;34966;-82
2022/04/17 10:51:13;;;;;;;;;;;;;;;15.45;27.55;100558.81;4375805;32;34417;-82
2022/04/17 10:53:56;;;;;;;;;;;;;;;15.76;24.91;100548.47;4365988;32;33565;-82
2022/04/17 10:56:24;;;;;;;;;;;;;;;16.14;21.61;100545.28;4377572;32;33477;-82
2022/04/17 10:58:53;;;;;;;;;;;;;;;15.64;21.76;100547.88;4354592;32;34092;-83
2022/04/17 11:01:40;;;;;;;;;;;;;;;14.91;23.11;100544.75;4365441;32;34676;-82
2022/04/17 11:04:19;;;;;;;;;;;;;;;15.19;22.96;100535.59;4379472;32;33689;-82
2022/04/17 11:06:46;;;;;;;;;;;;;;;15.15;23.59;100542.28;4354887;32;33153;-81
2022/04/17 11:11:16;;;;;;;;;;;;;;;15.92;20.53;100527.06;4458229;31;884721;-82
2022/04/17 11:14:03;;;;;;;;;;;;;;;15.92;20.53;100527.06;4466511;32;32546;-82
2022/04/17 11:16:36;;;;;;;;;;;;;;;15.11;20.32;100531.03;4470408;31;33716;-83
2022/04/17 11:19:06;;;;;;;;;;;;;;;15.43;24.96;100520.59;4465147;31;35967;-82
2022/04/17 11:21:38;;;;;;;;;;;;;;;15.53;21.89;100507.91;4485575;32;33995;-82
2022/04/17 11:24:05;;;;;;;;;;;;;;;15.52;22.23;100513.44;4459552;32;32990;-81
2022/04/17 11:26:55;;;;;;;;;;;;;;;16.74;20.30;100504.69;4469743;32;33577;-81
2022/04/17 11:29:33;;;;;;;;;;;;;;;17.74;24.59;100509.50;4486276;31;35005;-82
2022/04/17 11:32:01;;;;;;;;;;;;;;;19.47;21.72;100497.16;4453492;32;33933;-81
2022/04/17 11:34:41;;;;;;;;;;;;;;;19.19;18.65;100501.47;4472096;32;34477;-83
2022/04/17 11:37:08;;;;;;;;;;;;;;;17.85;19.50;100506.44;4458961;32;34171;-82
2022/04/17 11:39:36;;;;;;;;;;;;;;;19.12;21.33;100493.25;4484658;32;34181;-82
2022/04/17 11:42:04;;;;;;;;;;;;;;;19.57;22.46;100495.88;4460348;32;34173;-81
2022/04/17 11:47:13;;;;;;;;;;;;;;;20.62;18.44;100480.03;4455728;26;34755;-74
2022/04/17 11:49:41;;;;;;;;;;;;;;;20.76;17.80;100477.28;4395432;32;32876;-75
2022/04/17 11:52:12;;;;;;;;;;;;;;;19.19;18.71;100475.34;4402723;32;33789;-74
2022/04/17 11:54:41;;;;;;;;;;;;;;;18.81;18.47;100473.59;4391492;32;33731;-75
2022/04/17 11:57:08;;;;;;;;;;;;;;;18.03;22.55;100490.91;4406596;32;32923;-75
2022/04/17 11:59:45;;;;;;;;;;;;;;;17.88;21.50;100481.88;4387552;32;34747;-76
2022/04/17 12:02:16;;;;;;;;;;;;;;;18.29;19.05;100487.94;4408345;32;34397;-77
2022/04/17 12:04:44;;;;;;;;;;;;;;;18.57;18.97;100471.09;4403940;32;33713;-77
2022/04/17 12:07:12;;;;;;;;;;;;;;;18.87;18.54;100466.69;4420314;32;34838;-77
2022/04/17 12:09:40;;;;;;;;;;;;;;;18.16;21.75;100468.78;4406804;32;35394;-78
2022/04/17 12:12:11;;;;;;;;;;;;;;;18.94;20.39;100467.59;4389510;32;34919;-77
2022/04/17 12:14:39;;;;;;;;;;;;;;;19.45;17.53;100458.75;4407964;32;32438;-77
2022/04/17 12:17:14;;;;;;;;;;;;;;;19.00;18.83;100456.94;4395145;32;34058;-74
2022/04/17 12:19:50;;;;;;;;;;;;;;;19.66;20.42;100448.03;4388215;32;35689;-75
2022/04/17 12:22:18;;;;;;;;;;;;;;;20.08;17.08;100445.53;4395168;32;34296;-76
2022/04/17 12:24:46;;;;;;;;;;;;;;;18.74;17.57;100455.62;4405739;32;34455;-75
2022/04/17 12:27:19;;;;;;;;;;;;;;;17.34;19.74;100470.25;4396826;32;34235;-76
2022/04/17 12:29:47;;;;;;;;;;;;;;;16.89;21.02;100468.06;4397609;32;35474;-75
2022/04/17 12:32:15;;;;;;;;;;;;;;;16.97;23.56;100456.50;4398312;32;35086;-77
2022/04/17 12:34:46;;;;;;;;;;;;;;;17.38;20.40;100452.78;4363461;32;32972;-80
2022/04/17 12:37:21;;;;;;;;;;;;;;;17.97;21.30;100463.84;4385870;32;35988;-78
2022/04/17 12:39:49;;;;;;;;;;;;;;;18.51;17.99;100444.84;4398960;32;36329;-78
2022/04/17 12:42:17;;;;;;;;;;;;;;;18.44;22.13;100445.75;4388110;32;34430;-78
2022/04/17 12:44:47;;;;;;;;;;;;;;;18.41;21.88;100438.88;4406128;32;34220;-77
2022/04/17 12:47:15;;;;;;;;;;;;;;;19.02;19.23;100421.69;4387105;32;33892;-78
2022/04/17 12:49:42;;;;;;;;;;;;;;;19.22;19.51;100423.72;4383438;32;34647;-77
2022/04/17 12:52:19;;;;;;;;;;;;;;;19.05;22.83;100427.56;4393887;32;35222;-75
2022/04/17 12:54:47;;;;;;;;;;;;;;;18.70;18.74;100414.72;4380633;32;33251;-76
2022/04/17 12:57:20;;;;;;;;;;;;;;;17.94;17.55;100430.03;4401163;32;34136;-76
2022/04/17 12:59:48;;;;;;;;;;;;;;;17.12;18.25;100423.37;4398438;32;35367;-77
2022/04/17 13:02:18;;;;;;;;;;;;;;;16.74;23.77;100418.72;4395220;32;34776;-77
2022/04/17 13:04:46;;;;;;;;;;;;;;;16.90;18.82;100416.00;4410783;32;32929;-76
2022/04/17 13:07:15;;;;;;;;;;;;;;;16.85;19.88;100407.63;4380760;32;34273;-75
2022/04/17 13:09:52;;;;;;;;;;;;;;;16.77;19.81;100409.47;4381661;32;36530;-76
2022/04/17 13:12:30;;;;;;;;;;;;;;;17.37;20.58;100397.31;4393271;32;33022;-77
2022/04/17 13:14:58;;;;;;;;;;;;;;;17.88;18.83;100389.50;4368902;32;31653;-76
2022/04/17 13:17:26;;;;;;;;;;;;;;;17.86;19.37;100405.00;4396988;32;33976;-78
2022/04/17 13:19:53;;;;;;;;;;;;;;;18.47;18.86;100396.91;4385737;32;33640;-77
2022/04/17 13:22:21;;;;;;;;;;;;;;;18.57;19.64;100402.87;4372878;32;32903;-77
2022/04/17 13:24:48;;;;;;;;;;;;;;;18.80;17.34;100401.00;4400206;32;31980;-76